sensor_id;sensor_type;location;lat;lon;timestamp;temperature;humidity
45137;DHT22;30894;51.740;19.498;2022-08-14T00:00:52;19.90;99.90
45137;DHT22;30894;51.740;19.498;2022-08-14T00:03:27;20.00;99.90
45137;DHT22;30894;51.740;19.498;2022-08-14T00:05:56;19.90;99.90
45137;DHT22;30894;51.740;19.498;2022-08-14T00:08:23;19.90;99.90
45137;DHT22;30894;51.740;19.498;2022-08-14T00:10:49;19.90;99.90
45137;DHT22;30894;51.740;19.498;2022-08-14T00:13:17;19.70;99.90
45137;DHT22;30894;51.740;19.498;2022-08-14T00:15:46;19.60;99.90
45137;DHT22;30894;51.740;19.498;2022-08-14T00:18:18;19.40;99.90
45137;DHT22;30894;51.740;19.498;2022-08-14T00:20:46;19.30;99.90
45137;DHT22;30894;51.740;19.498;2022-08-14T00:23:14;19.30;99.90
45137;DHT22;30894;51.740;19.498;2022-08-14T00:25:42;19.20;99.90
45137;DHT22;30894;51.740;19.498;2022-08-14T00:28:13;19.30;99.90
45137;DHT22;30894;51.740;19.498;2022-08-14T00:30:46;19.10;99.90
45137;DHT22;30894;51.740;19.498;2022-08-14T00:33:13;19.00;99.90
45137;DHT22;30894;51.740;19.498;2022-08-14T00:35:39;18.90;99.90
45137;DHT22;30894;51.740;19.498;2022-08-14T00:38:05;18.80;99.90
45137;DHT22;30894;51.740;19.498;2022-08-14T00:40:31;18.60;99.90
45137;DHT22;30894;51.740;19.498;2022-08-14T00:42:57;18.50;99.90
45137;DHT22;30894;51.740;19.498;2022-08-14T00:45:24;18.40;99.90
45137;DHT22;30894;51.740;19.498;2022-08-14T00:47:50;18.30;99.90
45137;DHT22;30894;51.740;19.498;2022-08-14T00:50:19;18.20;99.90
45137;DHT22;30894;51.740;19.498;2022-08-14T00:52:50;18.20;99.90
45137;DHT22;30894;51.740;19.498;2022-08-14T00:55:19;18.20;99.90
45137;DHT22;30894;51.740;19.498;2022-08-14T00:57:46;18.10;99.90
45137;DHT22;30894;51.740;19.498;2022-08-14T01:00:32;18.10;99.90
45137;DHT22;30894;51.740;19.498;2022-08-14T01:02:59;18.00;99.90
45137;DHT22;30894;51.740;19.498;2022-08-14T01:05:29;18.00;99.90
45137;DHT22;30894;51.740;19.498;2022-08-14T01:07:55;18.10;99.90
45137;DHT22;30894;51.740;19.498;2022-08-14T01:10:29;18.20;99.90
45137;DHT22;30894;51.740;19.498;2022-08-14T01:13:16;18.30;99.90
45137;DHT22;30894;51.740;19.498;2022-08-14T01:15:49;18.30;99.90
45137;DHT22;30894;51.740;19.498;2022-08-14T01:18:17;18.30;99.90
45137;DHT22;30894;51.740;19.498;2022-08-14T01:21:03;18.30;99.90
45137;DHT22;30894;51.740;19.498;2022-08-14T01:23:35;18.30;99.90
45137;DHT22;30894;51.740;19.498;2022-08-14T01:26:04;18.30;99.90
45137;DHT22;30894;51.740;19.498;2022-08-14T01:28:32;18.30;99.90
45137;DHT22;30894;51.740;19.498;2022-08-14T01:31:02;18.40;99.90
45137;DHT22;30894;51.740;19.498;2022-08-14T01:33:35;18.50;99.90
45137;DHT22;30894;51.740;19.498;2022-08-14T01:36:06;18.60;99.90
45137;DHT22;30894;51.740;19.498;2022-08-14T01:38:34;18.70;99.90
45137;DHT22;30894;51.740;19.498;2022-08-14T01:41:01;18.70;99.90
45137;DHT22;30894;51.740;19.498;2022-08-14T01:43:29;18.80;99.90
45137;DHT22;30894;51.740;19.498;2022-08-14T01:45:57;18.80;99.90
45137;DHT22;30894;51.740;19.498;2022-08-14T01:48:27;18.90;99.90
45137;DHT22;30894;51.740;19.498;2022-08-14T01:50:56;18.90;99.90
45137;DHT22;30894;51.740;19.498;2022-08-14T01:53:22;18.90;99.90
45137;DHT22;30894;51.740;19.498;2022-08-14T01:55:49;18.90;99.90
45137;DHT22;30894;51.740;19.498;2022-08-14T01:58:16;18.80;99.90
45137;DHT22;30894;51.740;19.498;2022-08-14T02:00:43;18.70;99.90
45137;DHT22;30894;51.740;19.498;2022-08-14T02:03:09;18.70;99.90
45137;DHT22;30894;51.740;19.498;2022-08-14T02:05:35;18.70;99.90
45137;DHT22;30894;51.740;19.498;2022-08-14T02:08:01;18.60;99.90
45137;DHT22;30894;51.740;19.498;2022-08-14T02:10:27;18.70;99.90
45137;DHT22;30894;51.740;19.498;2022-08-14T02:12:55;18.60;99.90
45137;DHT22;30894;51.740;19.498;2022-08-14T02:15:24;18.70;99.90
45137;DHT22;30894;51.740;19.498;2022-08-14T02:17:50;18.70;99.90
45137;DHT22;30894;51.740;19.498;2022-08-14T02:20:16;18.70;99.90
45137;DHT22;30894;51.740;19.498;2022-08-14T02:22:44;18.80;99.90
45137;DHT22;30894;51.740;19.498;2022-08-14T02:25:11;18.90;99.90
45137;DHT22;30894;51.740;19.498;2022-08-14T02:27:37;19.00;99.90
45137;DHT22;30894;51.740;19.498;2022-08-14T02:30:06;19.00;99.90
45137;DHT22;30894;51.740;19.498;2022-08-14T02:32:33;19.10;99.90
45137;DHT22;30894;51.740;19.498;2022-08-14T02:35:00;19.20;99.90
45137;DHT22;30894;51.740;19.498;2022-08-14T02:37:28;19.20;99.90
45137;DHT22;30894;51.740;19.498;2022-08-14T02:39:54;19.20;99.90
45137;DHT22;30894;51.740;19.498;2022-08-14T02:42:22;19.20;99.90
45137;DHT22;30894;51.740;19.498;2022-08-14T02:44:49;19.20;99.90
45137;DHT22;30894;51.740;19.498;2022-08-14T02:47:16;19.30;99.90
45137;DHT22;30894;51.740;19.498;2022-08-14T02:49:42;19.30;99.90
45137;DHT22;30894;51.740;19.498;2022-08-14T02:52:10;19.30;99.90
45137;DHT22;30894;51.740;19.498;2022-08-14T02:54:37;19.30;99.90
45137;DHT22;30894;51.740;19.498;2022-08-14T02:57:04;19.30;99.90
45137;DHT22;30894;51.740;19.498;2022-08-14T02:59:32;19.20;99.90
45137;DHT22;30894;51.740;19.498;2022-08-14T03:02:01;19.20;99.90
45137;DHT22;30894;51.740;19.498;2022-08-14T03:04:28;19.20;99.90
45137;DHT22;30894;51.740;19.498;2022-08-14T03:06:56;19.20;99.90
45137;DHT22;30894;51.740;19.498;2022-08-14T03:09:22;19.20;99.90
45137;DHT22;30894;51.740;19.498;2022-08-14T03:11:49;19.10;99.90
45137;DHT22;30894;51.740;19.498;2022-08-14T03:14:15;19.20;99.90
45137;DHT22;30894;51.740;19.498;2022-08-14T03:16:42;19.20;99.90
45137;DHT22;30894;51.740;19.498;2022-08-14T03:19:10;19.20;99.90
45137;DHT22;30894;51.740;19.498;2022-08-14T03:21:37;19.10;99.90
45137;DHT22;30894;51.740;19.498;2022-08-14T03:24:05;19.10;99.90
45137;DHT22;30894;51.740;19.498;2022-08-14T03:26:35;19.10;99.90
45137;DHT22;30894;51.740;19.498;2022-08-14T03:29:03;19.10;99.90
45137;DHT22;30894;51.740;19.498;2022-08-14T03:31:30;19.10;99.90
45137;DHT22;30894;51.740;19.498;2022-08-14T03:33:57;18.90;99.90
45137;DHT22;30894;51.740;19.498;2022-08-14T03:36:24;18.90;99.90
45137;DHT22;30894;51.740;19.498;2022-08-14T03:38:50;18.80;99.90
45137;DHT22;30894;51.740;19.498;2022-08-14T03:41:24;18.80;99.90
45137;DHT22;30894;51.740;19.498;2022-08-14T03:43:55;18.80;99.90
45137;DHT22;30894;51.740;19.498;2022-08-14T03:46:27;18.80;99.90
45137;DHT22;30894;51.740;19.498;2022-08-14T03:48:58;18.70;99.90
45137;DHT22;30894;51.740;19.498;2022-08-14T03:51:26;18.80;99.90
45137;DHT22;30894;51.740;19.498;2022-08-14T03:53:55;18.80;99.90
45137;DHT22;30894;51.740;19.498;2022-08-14T03:56:23;18.80;99.90
45137;DHT22;30894;51.740;19.498;2022-08-14T03:58:53;18.80;99.90
45137;DHT22;30894;51.740;19.498;2022-08-14T04:01:23;18.90;99.90
45137;DHT22;30894;51.740;19.498;2022-08-14T04:03:52;18.90;99.90
45137;DHT22;30894;51.740;19.498;2022-08-14T04:06:20;18.90;99.90
45137;DHT22;30894;51.740;19.498;2022-08-14T04:08:47;19.00;99.90
45137;DHT22;30894;51.740;19.498;2022-08-14T04:11:15;19.00;99.90
45137;DHT22;30894;51.740;19.498;2022-08-14T04:13:42;19.00;99.90
45137;DHT22;30894;51.740;19.498;2022-08-14T04:16:20;19.20;99.90
45137;DHT22;30894;51.740;19.498;2022-08-14T04:18:54;19.20;99.90
45137;DHT22;30894;51.740;19.498;2022-08-14T04:21:23;19.20;99.90
45137;DHT22;30894;51.740;19.498;2022-08-14T04:23:56;19.30;99.90
45137;DHT22;30894;51.740;19.498;2022-08-14T04:26:27;19.40;99.90
45137;DHT22;30894;51.740;19.498;2022-08-14T04:28:55;19.40;99.90
45137;DHT22;30894;51.740;19.498;2022-08-14T04:31:22;19.30;99.90
45137;DHT22;30894;51.740;19.498;2022-08-14T04:33:49;19.40;99.90
45137;DHT22;30894;51.740;19.498;2022-08-14T04:36:18;19.40;99.90
45137;DHT22;30894;51.740;19.498;2022-08-14T04:38:44;19.40;99.90
45137;DHT22;30894;51.740;19.498;2022-08-14T04:41:28;19.40;99.90
45137;DHT22;30894;51.740;19.498;2022-08-14T04:44:19;19.50;99.90
45137;DHT22;30894;51.740;19.498;2022-08-14T04:46:46;19.50;99.90
45137;DHT22;30894;51.740;19.498;2022-08-14T04:49:30;19.60;99.90
45137;DHT22;30894;51.740;19.498;2022-08-14T04:51:58;19.70;99.90
45137;DHT22;30894;51.740;19.498;2022-08-14T04:54:25;19.80;99.90
45137;DHT22;30894;51.740;19.498;2022-08-14T04:56:53;19.80;99.90
45137;DHT22;30894;51.740;19.498;2022-08-14T04:59:21;19.80;99.90
45137;DHT22;30894;51.740;19.498;2022-08-14T05:01:48;19.80;99.90
45137;DHT22;30894;51.740;19.498;2022-08-14T05:04:14;19.80;99.90
45137;DHT22;30894;51.740;19.498;2022-08-14T05:06:41;19.80;99.90
45137;DHT22;30894;51.740;19.498;2022-08-14T05:09:07;19.90;99.90
45137;DHT22;30894;51.740;19.498;2022-08-14T05:11:33;20.00;99.90
45137;DHT22;30894;51.740;19.498;2022-08-14T05:14:01;20.10;99.90
45137;DHT22;30894;51.740;19.498;2022-08-14T05:16:28;20.40;99.90
45137;DHT22;30894;51.740;19.498;2022-08-14T05:18:56;20.60;99.90
45137;DHT22;30894;51.740;19.498;2022-08-14T05:21:22;20.80;99.90
45137;DHT22;30894;51.740;19.498;2022-08-14T05:23:49;21.10;99.90
45137;DHT22;30894;51.740;19.498;2022-08-14T05:26:16;21.50;99.90
45137;DHT22;30894;51.740;19.498;2022-08-14T05:28:44;21.90;99.90
45137;DHT22;30894;51.740;19.498;2022-08-14T05:31:12;22.00;99.90
45137;DHT22;30894;51.740;19.498;2022-08-14T05:33:43;21.90;99.90
45137;DHT22;30894;51.740;19.498;2022-08-14T05:36:10;21.80;99.90
45137;DHT22;30894;51.740;19.498;2022-08-14T05:38:41;21.70;99.90
45137;DHT22;30894;51.740;19.498;2022-08-14T05:41:17;21.60;99.90
45137;DHT22;30894;51.740;19.498;2022-08-14T05:43:45;21.60;99.90
45137;DHT22;30894;51.740;19.498;2022-08-14T05:46:16;21.60;99.90
45137;DHT22;30894;51.740;19.498;2022-08-14T05:48:50;21.50;99.90
45137;DHT22;30894;51.740;19.498;2022-08-14T05:51:20;21.40;99.90
45137;DHT22;30894;51.740;19.498;2022-08-14T05:53:46;21.30;99.90
45137;DHT22;30894;51.740;19.498;2022-08-14T05:56:12;21.30;99.90
45137;DHT22;30894;51.740;19.498;2022-08-14T05:58:41;21.40;99.90
45137;DHT22;30894;51.740;19.498;2022-08-14T06:01:07;21.50;99.90
45137;DHT22;30894;51.740;19.498;2022-08-14T06:03:34;21.50;99.90
45137;DHT22;30894;51.740;19.498;2022-08-14T06:06:00;21.50;99.90
45137;DHT22;30894;51.740;19.498;2022-08-14T06:08:28;21.60;99.90
45137;DHT22;30894;51.740;19.498;2022-08-14T06:10:58;21.60;99.90
45137;DHT22;30894;51.740;19.498;2022-08-14T06:13:32;21.70;99.90
45137;DHT22;30894;51.740;19.498;2022-08-14T06:16:00;21.70;99.90
45137;DHT22;30894;51.740;19.498;2022-08-14T06:18:26;21.70;99.90
45137;DHT22;30894;51.740;19.498;2022-08-14T06:20:53;21.60;99.90
45137;DHT22;30894;51.740;19.498;2022-08-14T06:23:19;21.60;99.90
45137;DHT22;30894;51.740;19.498;2022-08-14T06:25:46;21.60;99.90
45137;DHT22;30894;51.740;19.498;2022-08-14T06:28:16;21.60;99.90
45137;DHT22;30894;51.740;19.498;2022-08-14T06:30:43;21.60;99.90
45137;DHT22;30894;51.740;19.498;2022-08-14T06:33:10;21.60;99.90
45137;DHT22;30894;51.740;19.498;2022-08-14T06:35:36;21.60;99.90
45137;DHT22;30894;51.740;19.498;2022-08-14T06:38:02;21.60;99.90
45137;DHT22;30894;51.740;19.498;2022-08-14T06:40:33;21.60;99.90
45137;DHT22;30894;51.740;19.498;2022-08-14T06:43:04;21.70;99.90
45137;DHT22;30894;51.740;19.498;2022-08-14T06:45:32;21.70;99.90
45137;DHT22;30894;51.740;19.498;2022-08-14T06:47:59;21.80;99.90
45137;DHT22;30894;51.740;19.498;2022-08-14T06:50:26;22.00;99.90
45137;DHT22;30894;51.740;19.498;2022-08-14T06:52:53;22.10;99.90
45137;DHT22;30894;51.740;19.498;2022-08-14T06:55:20;22.10;99.90
45137;DHT22;30894;51.740;19.498;2022-08-14T06:57:50;22.20;99.90
45137;DHT22;30894;51.740;19.498;2022-08-14T07:00:25;22.30;99.90
45137;DHT22;30894;51.740;19.498;2022-08-14T07:02:53;22.30;99.90
45137;DHT22;30894;51.740;19.498;2022-08-14T07:05:37;22.30;99.90
45137;DHT22;30894;51.740;19.498;2022-08-14T07:08:19;22.40;99.90
45137;DHT22;30894;51.740;19.498;2022-08-14T07:10:55;22.40;99.90
45137;DHT22;30894;51.740;19.498;2022-08-14T07:13:23;22.40;99.90
45137;DHT22;30894;51.740;19.498;2022-08-14T07:15:55;22.40;99.90
45137;DHT22;30894;51.740;19.498;2022-08-14T07:18:25;22.50;99.90
45137;DHT22;30894;51.740;19.498;2022-08-14T07:20:53;22.40;99.90
45137;DHT22;30894;51.740;19.498;2022-08-14T07:23:20;22.40;99.90
45137;DHT22;30894;51.740;19.498;2022-08-14T07:25:53;22.50;99.90
45137;DHT22;30894;51.740;19.498;2022-08-14T07:28:28;22.30;99.90
45137;DHT22;30894;51.740;19.498;2022-08-14T07:30:58;22.30;99.90
45137;DHT22;30894;51.740;19.498;2022-08-14T07:33:28;22.20;99.90
45137;DHT22;30894;51.740;19.498;2022-08-14T07:36:00;22.20;99.90
45137;DHT22;30894;51.740;19.498;2022-08-14T07:38:28;22.10;99.90
45137;DHT22;30894;51.740;19.498;2022-08-14T07:40:54;22.10;99.90
45137;DHT22;30894;51.740;19.498;2022-08-14T07:43:22;22.20;99.90
45137;DHT22;30894;51.740;19.498;2022-08-14T07:45:48;22.20;99.90
45137;DHT22;30894;51.740;19.498;2022-08-14T07:48:14;22.20;99.90
45137;DHT22;30894;51.740;19.498;2022-08-14T07:50:40;22.20;99.90
45137;DHT22;30894;51.740;19.498;2022-08-14T07:53:07;22.10;99.90
45137;DHT22;30894;51.740;19.498;2022-08-14T07:55:33;22.20;99.90
45137;DHT22;30894;51.740;19.498;2022-08-14T07:58:02;22.20;99.90
45137;DHT22;30894;51.740;19.498;2022-08-14T08:00:29;22.20;99.90
45137;DHT22;30894;51.740;19.498;2022-08-14T08:02:55;22.10;99.90
45137;DHT22;30894;51.740;19.498;2022-08-14T08:05:25;22.10;99.90
45137;DHT22;30894;51.740;19.498;2022-08-14T08:07:52;22.00;99.90
45137;DHT22;30894;51.740;19.498;2022-08-14T08:10:24;21.90;99.90
45137;DHT22;30894;51.740;19.498;2022-08-14T08:13:03;21.90;99.90
45137;DHT22;30894;51.740;19.498;2022-08-14T08:15:35;21.90;99.90
45137;DHT22;30894;51.740;19.498;2022-08-14T08:18:04;21.90;99.90
45137;DHT22;30894;51.740;19.498;2022-08-14T08:20:33;21.90;99.90
45137;DHT22;30894;51.740;19.498;2022-08-14T08:23:01;21.90;99.90
45137;DHT22;30894;51.740;19.498;2022-08-14T08:25:32;22.00;99.90
45137;DHT22;30894;51.740;19.498;2022-08-14T08:30:37;22.20;99.90
45137;DHT22;30894;51.740;19.498;2022-08-14T08:33:09;22.30;99.90
45137;DHT22;30894;51.740;19.498;2022-08-14T08:35:36;22.50;99.90
45137;DHT22;30894;51.740;19.498;2022-08-14T08:38:07;22.80;99.90
45137;DHT22;30894;51.740;19.498;2022-08-14T08:40:39;23.10;99.90
45137;DHT22;30894;51.740;19.498;2022-08-14T08:43:17;23.60;99.90
45137;DHT22;30894;51.740;19.498;2022-08-14T08:45:53;24.10;99.90
45137;DHT22;30894;51.740;19.498;2022-08-14T08:48:21;24.40;99.90
45137;DHT22;30894;51.740;19.498;2022-08-14T08:50:48;24.70;99.90
45137;DHT22;30894;51.740;19.498;2022-08-14T08:53:14;25.00;99.90
45137;DHT22;30894;51.740;19.498;2022-08-14T08:55:42;25.60;99.90
45137;DHT22;30894;51.740;19.498;2022-08-14T08:58:15;25.70;99.90
45137;DHT22;30894;51.740;19.498;2022-08-14T09:00:48;25.70;99.90
45137;DHT22;30894;51.740;19.498;2022-08-14T09:03:19;26.00;99.90
45137;DHT22;30894;51.740;19.498;2022-08-14T09:05:54;26.00;99.90
45137;DHT22;30894;51.740;19.498;2022-08-14T09:08:24;26.10;99.90
45137;DHT22;30894;51.740;19.498;2022-08-14T09:10:53;26.10;99.90
45137;DHT22;30894;51.740;19.498;2022-08-14T09:13:20;25.80;99.90
45137;DHT22;30894;51.740;19.498;2022-08-14T09:15:52;25.60;99.90
45137;DHT22;30894;51.740;19.498;2022-08-14T09:18:21;25.70;99.90
45137;DHT22;30894;51.740;19.498;2022-08-14T09:20:51;25.80;99.90
45137;DHT22;30894;51.740;19.498;2022-08-14T09:23:20;25.80;99.90
45137;DHT22;30894;51.740;19.498;2022-08-14T09:25:48;25.80;99.90
45137;DHT22;30894;51.740;19.498;2022-08-14T09:28:17;26.00;99.90
45137;DHT22;30894;51.740;19.498;2022-08-14T09:30:49;26.40;99.90
45137;DHT22;30894;51.740;19.498;2022-08-14T09:45:14;28.60;95.90
45137;DHT22;30894;51.740;19.498;2022-08-14T09:47:55;28.30;97.10
45137;DHT22;30894;51.740;19.498;2022-08-14T09:50:31;28.10;98.30
45137;DHT22;30894;51.740;19.498;2022-08-14T09:53:17;27.90;99.40
45137;DHT22;30894;51.740;19.498;2022-08-14T09:55:58;27.70;99.90
45137;DHT22;30894;51.740;19.498;2022-08-14T09:58:39;27.70;99.90
45137;DHT22;30894;51.740;19.498;2022-08-14T10:01:14;28.10;99.90
45137;DHT22;30894;51.740;19.498;2022-08-14T10:03:55;28.50;97.90
45137;DHT22;30894;51.740;19.498;2022-08-14T10:06:25;28.60;96.80
45137;DHT22;30894;51.740;19.498;2022-08-14T10:09:06;28.70;96.10
45137;DHT22;30894;51.740;19.498;2022-08-14T10:11:34;29.00;95.10
45137;DHT22;30894;51.740;19.498;2022-08-14T10:14:19;29.40;93.90
45137;DHT22;30894;51.740;19.498;2022-08-14T10:16:48;29.90;92.40
45137;DHT22;30894;51.740;19.498;2022-08-14T10:19:18;30.30;90.90
45137;DHT22;30894;51.740;19.498;2022-08-14T10:21:57;30.50;90.10
45137;DHT22;30894;51.740;19.498;2022-08-14T10:24:35;30.60;89.60
45137;DHT22;30894;51.740;19.498;2022-08-14T10:27:16;30.80;89.00
45137;DHT22;30894;51.740;19.498;2022-08-14T10:29:48;31.10;88.00
45137;DHT22;30894;51.740;19.498;2022-08-14T10:32:23;31.30;86.90
45137;DHT22;30894;51.740;19.498;2022-08-14T10:35:06;31.70;85.90
45137;DHT22;30894;51.740;19.498;2022-08-14T10:37:42;33.10;82.90
45137;DHT22;30894;51.740;19.498;2022-08-14T10:40:25;34.00;79.10
45137;DHT22;30894;51.740;19.498;2022-08-14T10:42:53;34.50;77.30
45137;DHT22;30894;51.740;19.498;2022-08-14T10:45:29;34.40;77.00
45137;DHT22;30894;51.740;19.498;2022-08-14T10:47:59;33.90;77.70
45137;DHT22;30894;51.740;19.498;2022-08-14T10:50:34;33.10;79.80
45137;DHT22;30894;51.740;19.498;2022-08-14T10:53:04;32.50;80.90
45137;DHT22;30894;51.740;19.498;2022-08-14T10:55:35;32.10;82.30
45137;DHT22;30894;51.740;19.498;2022-08-14T10:58:07;32.50;82.20
45137;DHT22;30894;51.740;19.498;2022-08-14T11:00:38;32.60;81.80
45137;DHT22;30894;51.740;19.498;2022-08-14T11:03:10;32.70;81.40
45137;DHT22;30894;51.740;19.498;2022-08-14T11:05:46;32.60;81.60
45137;DHT22;30894;51.740;19.498;2022-08-14T11:08:15;32.20;82.10
45137;DHT22;30894;51.740;19.498;2022-08-14T11:10:47;31.80;83.00
45137;DHT22;30894;51.740;19.498;2022-08-14T11:13:18;31.30;84.10
45137;DHT22;30894;51.740;19.498;2022-08-14T11:15:46;30.80;85.70
45137;DHT22;30894;51.740;19.498;2022-08-14T11:18:14;30.40;87.30
45137;DHT22;30894;51.740;19.498;2022-08-14T11:20:48;30.30;88.60
45137;DHT22;30894;51.740;19.498;2022-08-14T11:23:25;30.40;89.00
45137;DHT22;30894;51.740;19.498;2022-08-14T11:25:55;30.40;89.00
45137;DHT22;30894;51.740;19.498;2022-08-14T11:28:26;30.40;89.00
45137;DHT22;30894;51.740;19.498;2022-08-14T11:30:54;30.30;89.30
45137;DHT22;30894;51.740;19.498;2022-08-14T11:33:24;30.10;89.80
45137;DHT22;30894;51.740;19.498;2022-08-14T11:35:57;29.90;90.20
45137;DHT22;30894;51.740;19.498;2022-08-14T11:38:26;29.70;90.60
45137;DHT22;30894;51.740;19.498;2022-08-14T11:40:56;29.90;90.60
45137;DHT22;30894;51.740;19.498;2022-08-14T11:43:23;30.00;90.40
45137;DHT22;30894;51.740;19.498;2022-08-14T11:45:50;30.10;90.10
45137;DHT22;30894;51.740;19.498;2022-08-14T11:48:22;30.20;89.80
45137;DHT22;30894;51.740;19.498;2022-08-14T11:50:50;30.40;89.00
45137;DHT22;30894;51.740;19.498;2022-08-14T11:53:24;30.70;88.10
45137;DHT22;30894;51.740;19.498;2022-08-14T11:55:58;30.90;87.00
45137;DHT22;30894;51.740;19.498;2022-08-14T11:58:35;31.20;85.90
45137;DHT22;30894;51.740;19.498;2022-08-14T12:01:07;31.30;85.20
45137;DHT22;30894;51.740;19.498;2022-08-14T12:03:44;31.40;84.80
45137;DHT22;30894;51.740;19.498;2022-08-14T12:06:17;31.70;84.20
45137;DHT22;30894;51.740;19.498;2022-08-14T12:08:45;32.00;82.80
45137;DHT22;30894;51.740;19.498;2022-08-14T12:11:13;32.30;82.40
45137;DHT22;30894;51.740;19.498;2022-08-14T12:13:41;32.80;81.00
45137;DHT22;30894;51.740;19.498;2022-08-14T12:16:14;33.30;79.70
45137;DHT22;30894;51.740;19.498;2022-08-14T12:18:43;33.80;78.30
45137;DHT22;30894;51.740;19.498;2022-08-14T12:21:16;34.00;77.20
45137;DHT22;30894;51.740;19.498;2022-08-14T12:23:46;34.00;77.30
45137;DHT22;30894;51.740;19.498;2022-08-14T12:26:16;34.40;76.70
45137;DHT22;30894;51.740;19.498;2022-08-14T12:28:49;34.30;76.40
45137;DHT22;30894;51.740;19.498;2022-08-14T12:31:19;34.20;76.90
45137;DHT22;30894;51.740;19.498;2022-08-14T12:34:00;34.10;77.00
45137;DHT22;30894;51.740;19.498;2022-08-14T12:36:29;33.50;77.80
45137;DHT22;30894;51.740;19.498;2022-08-14T12:38:59;33.00;78.80
45137;DHT22;30894;51.740;19.498;2022-08-14T12:41:29;32.60;79.80
45137;DHT22;30894;51.740;19.498;2022-08-14T12:44:03;32.40;80.40
45137;DHT22;30894;51.740;19.498;2022-08-14T12:46:35;32.40;80.50
45137;DHT22;30894;51.740;19.498;2022-08-14T12:51:40;33.60;78.20
45137;DHT22;30894;51.740;19.498;2022-08-14T12:54:13;34.10;76.60
45137;DHT22;30894;51.740;19.498;2022-08-14T12:56:42;33.90;76.50
45137;DHT22;30894;51.740;19.498;2022-08-14T12:59:13;33.70;77.00
45137;DHT22;30894;51.740;19.498;2022-08-14T13:01:43;33.80;76.40
45137;DHT22;30894;51.740;19.498;2022-08-14T13:04:15;33.40;77.00
45137;DHT22;30894;51.740;19.498;2022-08-14T13:06:43;32.70;78.20
45137;DHT22;30894;51.740;19.498;2022-08-14T13:09:15;32.30;79.40
45137;DHT22;30894;51.740;19.498;2022-08-14T13:11:50;31.80;80.30
45137;DHT22;30894;51.740;19.498;2022-08-14T13:14:23;31.40;81.30
45137;DHT22;30894;51.740;19.498;2022-08-14T13:16:53;31.10;82.20
45137;DHT22;30894;51.740;19.498;2022-08-14T13:19:21;30.80;83.00
45137;DHT22;30894;51.740;19.498;2022-08-14T13:21:49;30.60;83.70
45137;DHT22;30894;51.740;19.498;2022-08-14T13:24:18;31.10;83.50
45137;DHT22;30894;51.740;19.498;2022-08-14T13:26:50;32.10;81.10
45137;DHT22;30894;51.740;19.498;2022-08-14T13:29:23;32.40;80.00
45137;DHT22;30894;51.740;19.498;2022-08-14T13:31:53;33.00;78.60
45137;DHT22;30894;51.740;19.498;2022-08-14T13:34:22;34.00;76.80
45137;DHT22;30894;51.740;19.498;2022-08-14T13:36:50;34.50;75.20
45137;DHT22;30894;51.740;19.498;2022-08-14T13:39:19;34.90;74.30
45137;DHT22;30894;51.740;19.498;2022-08-14T13:41:47;35.00;73.20
45137;DHT22;30894;51.740;19.498;2022-08-14T13:44:16;34.30;73.90
45137;DHT22;30894;51.740;19.498;2022-08-14T13:46:48;33.50;75.50
45137;DHT22;30894;51.740;19.498;2022-08-14T13:49:16;32.80;77.00
45137;DHT22;30894;51.740;19.498;2022-08-14T13:51:46;32.10;78.40
45137;DHT22;30894;51.740;19.498;2022-08-14T13:54:17;31.50;79.70
45137;DHT22;30894;51.740;19.498;2022-08-14T13:56:46;31.50;80.50
45137;DHT22;30894;51.740;19.498;2022-08-14T13:59:13;31.70;80.30
45137;DHT22;30894;51.740;19.498;2022-08-14T14:01:40;31.70;80.10
45137;DHT22;30894;51.740;19.498;2022-08-14T14:04:15;31.50;80.30
45137;DHT22;30894;51.740;19.498;2022-08-14T14:06:46;31.30;80.70
45137;DHT22;30894;51.740;19.498;2022-08-14T14:09:26;31.20;81.10
45137;DHT22;30894;51.740;19.498;2022-08-14T14:11:54;31.20;81.10
45137;DHT22;30894;51.740;19.498;2022-08-14T14:14:24;31.00;81.30
45137;DHT22;30894;51.740;19.498;2022-08-14T14:16:51;30.70;81.70
45137;DHT22;30894;51.740;19.498;2022-08-14T14:19:19;30.60;82.20
45137;DHT22;30894;51.740;19.498;2022-08-14T14:21:49;30.60;82.30
45137;DHT22;30894;51.740;19.498;2022-08-14T14:24:16;30.70;82.10
45137;DHT22;30894;51.740;19.498;2022-08-14T14:26:46;30.80;82.00
45137;DHT22;30894;51.740;19.498;2022-08-14T14:29:13;30.70;81.90
45137;DHT22;30894;51.740;19.498;2022-08-14T14:31:40;30.60;82.20
45137;DHT22;30894;51.740;19.498;2022-08-14T14:34:07;30.70;82.60
45137;DHT22;30894;51.740;19.498;2022-08-14T14:36:34;31.60;81.50
45137;DHT22;30894;51.740;19.498;2022-08-14T14:39:04;32.70;78.90
45137;DHT22;30894;51.740;19.498;2022-08-14T14:41:39;33.40;76.80
45137;DHT22;30894;51.740;19.498;2022-08-14T14:44:09;33.50;75.70
45137;DHT22;30894;51.740;19.498;2022-08-14T14:46:42;32.80;76.70
45137;DHT22;30894;51.740;19.498;2022-08-14T14:49:14;32.50;77.40
45137;DHT22;30894;51.740;19.498;2022-08-14T14:51:44;32.20;77.90
45137;DHT22;30894;51.740;19.498;2022-08-14T14:54:11;32.10;78.70
45137;DHT22;30894;51.740;19.498;2022-08-14T14:56:41;32.60;77.90
45137;DHT22;30894;51.740;19.498;2022-08-14T14:59:10;33.10;76.70
45137;DHT22;30894;51.740;19.498;2022-08-14T15:01:37;33.30;76.20
45137;DHT22;30894;51.740;19.498;2022-08-14T15:04:04;33.60;75.60
45137;DHT22;30894;51.740;19.498;2022-08-14T15:06:32;33.60;75.30
45137;DHT22;30894;51.740;19.498;2022-08-14T15:09:00;33.70;75.00
45137;DHT22;30894;51.740;19.498;2022-08-14T15:11:27;33.90;74.80
45137;DHT22;30894;51.740;19.498;2022-08-14T15:13:54;33.90;74.60
45137;DHT22;30894;51.740;19.498;2022-08-14T15:16:20;33.80;74.60
45137;DHT22;30894;51.740;19.498;2022-08-14T15:18:46;33.90;74.50
45137;DHT22;30894;51.740;19.498;2022-08-14T15:21:13;34.00;74.50
45137;DHT22;30894;51.740;19.498;2022-08-14T15:23:40;34.20;74.00
45137;DHT22;30894;51.740;19.498;2022-08-14T15:26:07;34.20;73.90
45137;DHT22;30894;51.740;19.498;2022-08-14T15:28:33;34.10;74.00
45137;DHT22;30894;51.740;19.498;2022-08-14T15:31:04;34.00;74.10
45137;DHT22;30894;51.740;19.498;2022-08-14T15:33:30;33.70;74.40
45137;DHT22;30894;51.740;19.498;2022-08-14T15:36:15;33.20;75.40
45137;DHT22;30894;51.740;19.498;2022-08-14T15:38:41;32.50;76.70
45137;DHT22;30894;51.740;19.498;2022-08-14T15:41:07;32.00;77.70
45137;DHT22;30894;51.740;19.498;2022-08-14T15:43:43;31.60;78.70
45137;DHT22;30894;51.740;19.498;2022-08-14T15:46:16;31.20;79.40
45137;DHT22;30894;51.740;19.498;2022-08-14T15:48:43;31.00;80.20